createdAt,value
2023-01-19T00:00:59.751Z,2.29
2023-01-19T00:03:26.536Z,2.16
2023-01-19T00:05:53.157Z,2.22
2023-01-19T00:08:19.819Z,2.21
2023-01-19T00:10:51.287Z,2.10
2023-01-19T00:13:18.223Z,2.09
2023-01-19T00:15:45.453Z,2.15
2023-01-19T00:18:12.258Z,2.25
2023-01-19T00:20:42.375Z,2.25
2023-01-19T00:23:11.546Z,2.07
2023-01-19T00:25:42.691Z,2.18
2023-01-19T00:28:14.987Z,2.06
2023-01-19T00:30:42.623Z,2.08
2023-01-19T00:33:14.647Z,2.25
2023-01-19T00:35:42.764Z,2.27
2023-01-19T00:38:10.754Z,2.23
2023-01-19T00:40:37.389Z,2.28
2023-01-19T00:43:06.591Z,2.16
2023-01-19T00:45:34.077Z,2.24
2023-01-19T00:48:01.588Z,2.24
2023-01-19T00:50:30.496Z,2.17
2023-01-19T00:53:01.467Z,2.17
2023-01-19T00:55:29.431Z,2.19
2023-01-19T00:57:56.501Z,2.23
2023-01-19T01:00:24.096Z,2.24
2023-01-19T01:02:52.572Z,2.13
2023-01-19T01:05:20.317Z,2.30
2023-01-19T01:07:49.649Z,2.14
2023-01-19T01:10:23.707Z,2.31
2023-01-19T01:12:56.055Z,2.24
2023-01-19T01:15:27.704Z,2.38
2023-01-19T01:17:57.219Z,2.38
2023-01-19T01:20:28.145Z,2.38
2023-01-19T01:22:55.919Z,2.41
2023-01-19T01:25:24.114Z,2.28
2023-01-19T01:27:51.402Z,2.27
2023-01-19T01:30:21.353Z,2.39
2023-01-19T01:32:48.172Z,2.35
2023-01-19T01:35:16.398Z,2.41
2023-01-19T01:37:46.261Z,2.24
2023-01-19T01:40:15.383Z,2.44
2023-01-19T01:42:43.039Z,2.28
2023-01-19T01:45:30.450Z,2.42
2023-01-19T01:48:10.480Z,2.40
2023-01-19T01:51:07.683Z,2.38
2023-01-19T01:53:36.399Z,2.37
2023-01-19T01:56:09.201Z,2.35
2023-01-19T01:58:37.847Z,2.27
2023-01-19T02:01:25.238Z,2.22
2023-01-19T02:03:57.521Z,2.16
2023-01-19T02:06:24.680Z,2.12
2023-01-19T02:09:21.343Z,2.08
2023-01-19T02:12:09.563Z,2.03
2023-01-19T02:14:38.924Z,1.80
2023-01-19T02:17:07.073Z,1.96
2023-01-19T02:19:41.602Z,1.93
2023-01-19T02:22:29.911Z,1.92
2023-01-19T02:24:56.843Z,1.88
2023-01-19T02:27:25.880Z,1.89
2023-01-19T02:29:53.447Z,1.88
2023-01-19T02:32:20.127Z,1.86
2023-01-19T02:34:46.893Z,1.85
2023-01-19T02:37:17.154Z,1.84
2023-01-19T02:39:50.922Z,1.82
2023-01-19T02:42:23.243Z,1.78
2023-01-19T02:44:53.429Z,1.65
2023-01-19T02:47:20.075Z,1.80
2023-01-19T02:49:57.372Z,1.71
2023-01-19T02:52:24.643Z,1.79
2023-01-19T02:54:56.163Z,1.78
2023-01-19T02:57:40.134Z,1.79
2023-01-19T03:00:28.207Z,1.79
2023-01-19T03:03:23.389Z,1.76
2023-01-19T03:05:54.937Z,1.76
2023-01-19T03:08:39.750Z,1.76
2023-01-19T03:11:10.488Z,1.72
2023-01-19T03:13:50.155Z,1.76
2023-01-19T03:16:30.406Z,1.73
2023-01-19T03:19:06.359Z,1.72
2023-01-19T03:21:35.826Z,1.70
2023-01-19T03:24:04.896Z,1.68
2023-01-19T03:26:40.025Z,1.69
2023-01-19T03:29:10.257Z,1.58
2023-01-19T03:31:37.959Z,1.70
2023-01-19T03:34:13.534Z,1.64
2023-01-19T03:36:53.889Z,1.68
2023-01-19T03:39:27.365Z,1.69
2023-01-19T03:42:01.794Z,1.46
2023-01-19T03:44:31.347Z,1.64
2023-01-19T03:47:02.018Z,1.62
2023-01-19T03:49:31.523Z,1.59
2023-01-19T03:51:59.320Z,1.59
2023-01-19T03:54:26.283Z,1.63
2023-01-19T03:56:52.934Z,1.58
2023-01-19T03:59:20.111Z,1.61
2023-01-19T04:01:47.292Z,1.64
2023-01-19T04:04:17.260Z,1.41
2023-01-19T04:06:44.248Z,1.45
2023-01-19T04:09:13.139Z,1.59
2023-01-19T04:11:39.714Z,1.57
2023-01-19T04:14:08.385Z,1.44
2023-01-19T04:16:35.556Z,1.36
2023-01-19T04:19:02.179Z,1.58
2023-01-19T04:21:31.201Z,1.54
2023-01-19T04:23:59.231Z,1.56
2023-01-19T04:26:28.595Z,1.42
2023-01-19T04:28:55.206Z,1.49
2023-01-19T04:31:23.341Z,1.56
2023-01-19T04:33:50.517Z,1.55
2023-01-19T04:36:19.590Z,1.47
2023-01-19T04:38:49.262Z,1.52
2023-01-19T04:41:16.326Z,1.52
2023-01-19T04:43:45.366Z,1.38
2023-01-19T04:46:12.053Z,1.48
2023-01-19T04:48:40.594Z,1.50
2023-01-19T04:51:09.065Z,1.50
2023-01-19T04:53:36.476Z,1.51
2023-01-19T04:56:03.157Z,1.49
2023-01-19T04:58:30.290Z,1.51
2023-01-19T05:00:56.925Z,1.54
2023-01-19T05:03:25.610Z,1.46
2023-01-19T05:05:56.310Z,1.56
2023-01-19T05:08:23.108Z,1.46
2023-01-19T05:10:52.455Z,1.50
2023-01-19T05:13:21.501Z,1.36
2023-01-19T05:15:48.163Z,1.48
2023-01-19T05:18:15.247Z,1.50
2023-01-19T05:20:41.913Z,1.44
2023-01-19T05:23:08.445Z,1.26
2023-01-19T05:25:35.152Z,1.43
2023-01-19T05:28:02.995Z,1.43
2023-01-19T05:30:31.962Z,1.29
2023-01-19T05:32:59.076Z,1.40
2023-01-19T05:35:35.195Z,1.27
2023-01-19T05:38:02.708Z,1.41
2023-01-19T05:40:29.328Z,1.41
2023-01-19T05:43:00.223Z,1.21
2023-01-19T05:45:29.883Z,1.40
2023-01-19T05:47:56.622Z,1.33
2023-01-19T05:50:23.575Z,1.41
2023-01-19T05:52:53.317Z,1.41
2023-01-19T05:55:21.358Z,1.28
2023-01-19T05:59:19.263Z,1.39
2023-01-19T06:00:48.540Z,1.30
2023-01-19T06:03:15.283Z,1.42
2023-01-19T06:05:41.857Z,1.42
2023-01-19T06:08:08.810Z,1.41
2023-01-19T06:10:38.045Z,1.42
2023-01-19T06:13:11.281Z,1.23
2023-01-19T06:15:38.207Z,1.43
2023-01-19T06:18:05.181Z,1.43
2023-01-19T06:20:31.850Z,1.27
2023-01-19T06:22:58.978Z,1.44
2023-01-19T06:25:26.081Z,1.45
2023-01-19T06:27:52.860Z,1.46
2023-01-19T06:30:19.926Z,1.32
2023-01-19T06:32:47.544Z,1.44
2023-01-19T06:35:14.517Z,1.43
2023-01-19T06:37:41.154Z,1.32
2023-01-19T06:40:14.322Z,1.49
2023-01-19T06:42:41.200Z,1.49
2023-01-19T06:45:10.208Z,1.47
2023-01-19T06:47:37.087Z,1.45
2023-01-19T06:50:06.032Z,1.37
2023-01-19T06:52:42.404Z,1.54
2023-01-19T06:55:13.928Z,1.57
2023-01-19T06:57:40.807Z,1.43
2023-01-19T07:00:10.092Z,1.56
2023-01-19T07:02:42.705Z,1.59
2023-01-19T07:05:10.544Z,1.63
2023-01-19T07:07:39.771Z,1.64
2023-01-19T07:10:08.297Z,1.48
2023-01-19T07:12:35.630Z,1.59
2023-01-19T07:15:02.539Z,1.53
2023-01-19T07:17:29.338Z,1.55
2023-01-19T07:19:55.949Z,1.35
2023-01-19T07:22:22.546Z,1.14
2023-01-19T07:24:51.641Z,1.48
2023-01-19T07:27:18.215Z,1.52
2023-01-19T07:29:45.022Z,1.50
2023-01-19T07:32:14.993Z,1.51
2023-01-19T07:34:44.103Z,1.57
2023-01-19T07:37:13.499Z,1.58
2023-01-19T07:39:40.162Z,1.61
2023-01-19T07:42:07.387Z,1.54
2023-01-19T07:44:34.301Z,1.48
2023-01-19T07:47:01.125Z,1.59
2023-01-19T07:49:32.471Z,1.64
2023-01-19T07:51:59.406Z,1.66
2023-01-19T07:54:26.149Z,1.53
2023-01-19T07:56:55.837Z,1.63
2023-01-19T07:59:22.847Z,1.48
2023-01-19T08:01:53.660Z,1.57
2023-01-19T08:04:20.947Z,1.61
2023-01-19T08:06:48.211Z,1.60
2023-01-19T08:09:18.344Z,1.61
2023-01-19T08:11:44.973Z,1.62
2023-01-19T08:14:15.739Z,1.53
2023-01-19T08:16:42.471Z,1.64
2023-01-19T08:19:09.600Z,1.81
2023-01-19T08:21:36.685Z,1.89
2023-01-19T08:24:03.492Z,1.76
2023-01-19T08:26:35.789Z,1.85
2023-01-19T08:29:06.195Z,2.05
2023-01-19T08:31:35.623Z,2.06
2023-01-19T08:34:05.914Z,1.96
2023-01-19T08:36:32.873Z,2.08
2023-01-19T08:38:59.510Z,2.06
2023-01-19T08:41:28.975Z,1.94
2023-01-19T08:43:55.779Z,2.08
2023-01-19T08:46:22.397Z,2.11
2023-01-19T08:48:49.564Z,2.17
2023-01-19T08:51:17.568Z,2.19
2023-01-19T08:53:46.684Z,2.18
2023-01-19T08:56:14.424Z,2.06
2023-01-19T08:58:46.703Z,2.16
2023-01-19T09:01:17.287Z,2.08
2023-01-19T09:03:44.451Z,2.34
2023-01-19T09:06:17.349Z,2.38
2023-01-19T09:08:47.175Z,2.44
2023-01-19T09:11:17.698Z,2.53
2023-01-19T09:13:44.703Z,2.60
2023-01-19T09:16:13.431Z,2.58
2023-01-19T09:18:40.583Z,2.43
2023-01-19T09:21:08.323Z,2.52
2023-01-19T09:23:34.942Z,2.38
2023-01-19T09:26:03.487Z,2.54
2023-01-19T09:28:30.213Z,2.63
2023-01-19T09:30:59.620Z,2.70
2023-01-19T09:33:28.978Z,2.63
2023-01-19T09:35:58.116Z,2.80
2023-01-19T09:38:25.972Z,2.81
2023-01-19T09:40:58.979Z,2.87
2023-01-19T09:43:43.103Z,2.87
2023-01-19T09:46:20.337Z,2.95
2023-01-19T09:48:58.546Z,3.06
2023-01-19T09:51:29.193Z,3.23
2023-01-19T09:54:20.846Z,3.24
2023-01-19T09:56:52.385Z,3.17
2023-01-19T09:59:24.669Z,3.22
2023-01-19T10:02:29.007Z,3.31
2023-01-19T10:05:05.482Z,3.44
2023-01-19T10:07:53.429Z,3.51
2023-01-19T10:10:27.235Z,3.57
2023-01-19T10:13:26.235Z,3.60
2023-01-19T10:16:05.044Z,3.64
2023-01-19T10:18:48.324Z,3.66
2023-01-19T10:21:33.654Z,3.67
2023-01-19T10:24:19.819Z,3.54
2023-01-19T10:26:49.962Z,3.65
2023-01-19T10:29:29.240Z,3.65
2023-01-19T10:32:10.181Z,3.65
2023-01-19T10:34:37.147Z,3.67
2023-01-19T10:37:22.118Z,3.74
2023-01-19T10:40:02.846Z,3.69
2023-01-19T10:42:31.174Z,3.69
2023-01-19T10:44:58.531Z,3.69
2023-01-19T10:47:34.153Z,3.67
2023-01-19T10:50:08.435Z,3.66
2023-01-19T10:52:39.860Z,3.68
2023-01-19T10:55:25.100Z,3.56
2023-01-19T10:57:53.670Z,3.62
2023-01-19T11:00:39.234Z,3.73
2023-01-19T11:03:31.550Z,3.72
2023-01-19T11:06:13.863Z,3.74
2023-01-19T11:08:41.192Z,3.65
2023-01-19T11:11:09.134Z,3.73
2023-01-19T11:13:36.725Z,3.69
2023-01-19T11:16:14.944Z,3.70
2023-01-19T11:18:45.116Z,3.86
2023-01-19T11:21:14.017Z,3.88
2023-01-19T11:23:51.666Z,3.92
2023-01-19T11:26:25.707Z,3.85
2023-01-19T11:28:56.332Z,3.98
2023-01-19T11:31:29.610Z,4.12
2023-01-19T11:33:59.849Z,4.17
2023-01-19T11:36:36.720Z,4.22
2023-01-19T11:39:15.167Z,4.27
2023-01-19T11:41:41.978Z,4.27
2023-01-19T11:44:35.358Z,4.31
2023-01-19T11:47:27.646Z,4.40
2023-01-19T11:50:06.612Z,4.42
2023-01-19T11:52:42.312Z,4.48
2023-01-19T11:55:38.920Z,4.52
2023-01-19T11:58:06.153Z,4.42
2023-01-19T12:00:38.288Z,4.48
2023-01-19T12:03:10.022Z,4.54
2023-01-19T12:05:48.033Z,4.69
2023-01-19T12:08:30.954Z,4.62
2023-01-19T12:11:00.024Z,4.65
2023-01-19T12:13:28.031Z,4.81
2023-01-19T12:16:03.136Z,4.87
2023-01-19T12:18:38.905Z,4.91
2023-01-19T12:21:05.734Z,5.01
2023-01-19T12:23:55.655Z,5.08
2023-01-19T12:26:34.419Z,5.11
2023-01-19T12:29:14.138Z,5.11
2023-01-19T12:31:43.128Z,5.27
2023-01-19T12:34:31.709Z,5.33
2023-01-19T12:37:04.239Z,5.38
2023-01-19T12:39:33.390Z,5.44
2023-01-19T12:42:06.169Z,5.50
2023-01-19T12:44:34.538Z,5.59
2023-01-19T12:47:10.306Z,5.66
2023-01-19T12:49:53.872Z,5.60
2023-01-19T12:52:35.613Z,5.60
2023-01-19T12:55:23.276Z,5.77
2023-01-19T12:58:08.370Z,5.80
2023-01-19T13:00:37.797Z,5.67
2023-01-19T13:03:24.349Z,5.80
2023-01-19T13:05:57.496Z,5.66
2023-01-19T13:08:30.686Z,5.74
2023-01-19T13:11:03.300Z,5.76
2023-01-19T13:13:38.304Z,5.62
2023-01-19T13:16:30.688Z,5.72
2023-01-19T13:19:06.580Z,5.75
2023-01-19T13:21:42.414Z,5.79
2023-01-19T13:24:22.454Z,5.79
2023-01-19T13:26:49.251Z,5.82
2023-01-19T13:29:41.754Z,5.84
2023-01-19T13:32:18.945Z,5.81
2023-01-19T13:34:51.992Z,5.68
2023-01-19T13:37:22.663Z,5.72
2023-01-19T13:39:53.347Z,5.42
2023-01-19T13:42:39.608Z,5.47
2023-01-19T13:45:29.336Z,5.26
2023-01-19T13:47:58.796Z,5.02
2023-01-19T13:50:27.021Z,5.17
2023-01-19T13:52:55.701Z,4.98
2023-01-19T13:55:24.624Z,5.02
2023-01-19T13:57:54.321Z,4.93
2023-01-19T14:00:28.452Z,4.85
2023-01-19T14:02:59.458Z,4.80
2023-01-19T14:05:35.619Z,4.69
2023-01-19T14:08:08.233Z,4.75
2023-01-19T14:10:36.478Z,4.64
2023-01-19T14:13:06.219Z,4.72
2023-01-19T14:15:35.078Z,4.86
2023-01-19T14:18:28.535Z,4.89
2023-01-19T14:21:03.595Z,4.88
2023-01-19T14:23:45.995Z,4.78
2023-01-19T14:26:37.711Z,4.95
2023-01-19T14:29:19.897Z,4.93
2023-01-19T14:31:50.066Z,5.00
2023-01-19T14:34:39.286Z,4.86
2023-01-19T14:37:30.661Z,5.02
2023-01-19T14:40:08.334Z,4.99
2023-01-19T14:42:41.647Z,4.95
2023-01-19T14:45:35.397Z,4.82
2023-01-19T14:48:07.218Z,4.77
2023-01-19T14:50:37.488Z,4.92
2023-01-19T14:53:17.023Z,4.71
2023-01-19T14:55:51.020Z,4.80
2023-01-19T14:58:19.947Z,4.77
2023-01-19T15:00:50.069Z,4.75
2023-01-19T15:03:17.009Z,4.49
2023-01-19T15:05:47.068Z,4.57
2023-01-19T15:08:34.714Z,4.50
2023-01-19T15:11:10.794Z,4.46
2023-01-19T15:13:39.177Z,4.49
2023-01-19T15:16:06.921Z,4.47
2023-01-19T15:18:33.672Z,4.31
2023-01-19T15:21:03.004Z,4.39
2023-01-19T15:23:31.257Z,4.36
2023-01-19T15:26:04.942Z,4.35
2023-01-19T15:28:32.193Z,4.35
2023-01-19T15:31:02.541Z,4.33
2023-01-19T15:33:33.183Z,4.30
2023-01-19T15:36:02.434Z,4.24
2023-01-19T15:38:29.352Z,4.17
2023-01-19T15:40:58.739Z,3.96
2023-01-19T15:43:28.613Z,3.85
2023-01-19T15:46:02.609Z,3.92
2023-01-19T15:48:29.462Z,3.83
2023-01-19T15:50:57.132Z,3.72
2023-01-19T15:53:24.664Z,3.71
2023-01-19T15:56:06.978Z,3.59
2023-01-19T15:58:33.777Z,3.55
2023-01-19T16:01:00.539Z,3.42
2023-01-19T16:03:27.520Z,3.41
2023-01-19T16:05:54.327Z,3.35
2023-01-19T16:08:22.141Z,3.20
2023-01-19T16:10:48.803Z,3.23
2023-01-19T16:13:18.207Z,3.18
2023-01-19T16:15:45.058Z,3.12
2023-01-19T16:18:11.831Z,2.92
2023-01-19T16:20:38.527Z,2.86
2023-01-19T16:23:20.618Z,2.91
2023-01-19T16:25:59.594Z,2.88
2023-01-19T16:28:27.180Z,2.65
2023-01-19T16:30:54.181Z,2.78
2023-01-19T16:33:20.835Z,2.73
2023-01-19T16:35:49.885Z,2.54
2023-01-19T16:38:16.750Z,2.48
2023-01-19T16:40:47.700Z,2.44
2023-01-19T16:43:15.246Z,2.40
2023-01-19T16:46:02.760Z,2.46
2023-01-19T16:48:29.906Z,2.42
2023-01-19T16:51:03.329Z,2.41
2023-01-19T16:53:37.133Z,2.32
2023-01-19T16:56:07.629Z,2.31
2023-01-19T16:58:42.879Z,2.18
2023-01-19T17:01:15.032Z,2.28
2023-01-19T17:03:42.271Z,2.25
2023-01-19T17:06:12.300Z,2.22
2023-01-19T17:08:39.588Z,2.21
2023-01-19T17:11:12.528Z,2.19
2023-01-19T17:13:39.655Z,2.09
2023-01-19T17:16:09.644Z,2.04
2023-01-19T17:18:38.260Z,2.04
2023-01-19T17:21:09.538Z,2.09
2023-01-19T17:23:37.585Z,1.86
2023-01-19T17:26:05.099Z,1.99
2023-01-19T17:28:34.475Z,1.98
2023-01-19T17:31:09.469Z,2.05
2023-01-19T17:33:39.328Z,1.85
2023-01-19T17:36:13.089Z,1.94
2023-01-19T17:38:40.370Z,1.75
2023-01-19T17:41:14.949Z,1.89
2023-01-19T17:43:41.974Z,1.86
2023-01-19T17:46:09.178Z,1.81
2023-01-19T17:48:35.903Z,1.59
2023-01-19T17:51:09.839Z,1.72
2023-01-19T17:53:38.055Z,1.71
2023-01-19T17:56:10.907Z,1.71
2023-01-19T17:58:38.320Z,1.67
2023-01-19T18:01:25.250Z,1.63
2023-01-19T18:03:53.060Z,1.60
2023-01-19T18:06:20.161Z,1.41
2023-01-19T18:08:47.952Z,1.57
2023-01-19T18:11:16.583Z,1.56
2023-01-19T18:13:45.317Z,1.38
2023-01-19T18:16:21.437Z,1.39
2023-01-19T18:18:50.007Z,1.33
2023-01-19T18:21:17.761Z,1.43
2023-01-19T18:23:45.230Z,1.39
2023-01-19T18:26:19.979Z,1.25
2023-01-19T18:28:47.878Z,1.34
2023-01-19T18:31:17.852Z,1.33
2023-01-19T18:33:44.829Z,1.31
2023-01-19T18:36:11.901Z,1.14
2023-01-19T18:38:39.191Z,1.25
2023-01-19T18:41:08.686Z,1.24
2023-01-19T18:43:35.385Z,1.21
2023-01-19T18:46:02.714Z,1.20
2023-01-19T18:48:30.063Z,1.12
2023-01-19T18:50:57.078Z,1.14
2023-01-19T18:53:24.290Z,1.11
2023-01-19T18:55:57.448Z,1.18
2023-01-19T18:58:24.693Z,1.16
2023-01-19T19:00:51.436Z,1.03
2023-01-19T19:03:18.296Z,1.14
2023-01-19T19:05:45.238Z,1.19
2023-01-19T19:08:14.285Z,1.16
2023-01-19T19:10:42.303Z,1.14
2023-01-19T19:13:12.118Z,1.11
2023-01-19T19:15:38.909Z,1.05
2023-01-19T19:18:05.991Z,0.99
2023-01-19T19:20:38.220Z,0.87
2023-01-19T19:23:07.395Z,0.84
2023-01-19T19:25:34.081Z,0.99
2023-01-19T19:28:01.116Z,0.95
2023-01-19T19:30:28.361Z,0.97
2023-01-19T19:32:59.075Z,0.96
2023-01-19T19:35:26.599Z,0.80
2023-01-19T19:37:57.844Z,0.90
2023-01-19T19:40:30.477Z,0.77
2023-01-19T19:42:58.841Z,0.84
2023-01-19T19:45:25.668Z,0.84
2023-01-19T19:47:52.377Z,0.81
2023-01-19T19:50:19.329Z,0.82
2023-01-19T19:52:46.102Z,0.79
2023-01-19T19:55:12.849Z,0.80
2023-01-19T19:57:39.748Z,0.79
2023-01-19T20:00:09.607Z,0.77
2023-01-19T20:02:36.766Z,0.74
2023-01-19T20:05:04.577Z,0.71
2023-01-19T20:07:31.350Z,0.55
2023-01-19T20:09:58.062Z,0.68
2023-01-19T20:12:25.081Z,0.51
2023-01-19T20:14:51.685Z,0.66
2023-01-19T20:17:19.096Z,0.52
2023-01-19T20:19:47.706Z,0.65
2023-01-19T20:22:14.581Z,0.47
2023-01-19T20:24:41.161Z,0.59
2023-01-19T20:27:10.576Z,0.43
2023-01-19T20:29:37.259Z,0.48
2023-01-19T20:32:06.625Z,0.58
2023-01-19T20:34:35.658Z,0.59
2023-01-19T20:37:07.124Z,0.69
2023-01-19T20:39:39.837Z,0.72
2023-01-19T20:42:11.359Z,0.79
2023-01-19T20:44:38.283Z,0.68
2023-01-19T20:47:09.283Z,0.80
2023-01-19T20:49:38.649Z,1.01
2023-01-19T20:52:05.255Z,1.08
2023-01-19T20:54:31.894Z,1.13
2023-01-19T20:56:59.856Z,1.16
2023-01-19T20:59:27.237Z,1.24
2023-01-19T21:01:54.525Z,1.23
2023-01-19T21:04:22.396Z,1.15
2023-01-19T21:06:49.864Z,1.35
2023-01-19T21:09:18.670Z,1.37
2023-01-19T21:11:45.991Z,1.40
2023-01-19T21:14:12.836Z,1.34
2023-01-19T21:16:39.537Z,1.43
2023-01-19T21:19:06.742Z,1.46
2023-01-19T21:21:35.671Z,1.48
2023-01-19T21:24:04.163Z,1.46
2023-01-19T21:26:31.578Z,1.48
2023-01-19T21:28:59.862Z,1.51
2023-01-19T21:31:27.919Z,1.54
2023-01-19T21:33:54.956Z,1.54
2023-01-19T21:36:25.104Z,1.50
2023-01-19T21:38:55.693Z,1.55
2023-01-19T21:41:24.862Z,1.49
2023-01-19T21:43:51.631Z,1.60
2023-01-19T21:46:20.524Z,1.59
2023-01-19T21:48:50.446Z,1.46
2023-01-19T21:51:23.436Z,1.66
2023-01-19T21:53:52.266Z,1.55
2023-01-19T21:56:18.925Z,1.53
2023-01-19T21:58:47.450Z,1.68
2023-01-19T22:01:14.346Z,1.69
2023-01-19T22:03:47.146Z,1.69
2023-01-19T22:06:14.913Z,1.70
2023-01-19T22:08:41.952Z,1.71
2023-01-19T22:11:11.960Z,1.68
2023-01-19T22:13:41.908Z,1.74
2023-01-19T22:16:11.707Z,1.75
2023-01-19T22:18:41.089Z,1.77
2023-01-19T22:21:22.003Z,1.69
2023-01-19T22:23:51.525Z,1.79
2023-01-19T22:26:18.675Z,1.78
2023-01-19T22:28:45.641Z,1.80
2023-01-19T22:31:17.603Z,1.77
2023-01-19T22:33:49.121Z,1.78
2023-01-19T22:36:27.672Z,1.80
2023-01-19T22:38:59.005Z,1.74
2023-01-19T22:41:28.468Z,1.81
2023-01-19T22:43:59.485Z,1.58
2023-01-19T22:46:29.083Z,1.68
2023-01-19T22:48:56.689Z,1.79
2023-01-19T22:51:26.781Z,1.78
2023-01-19T22:53:53.563Z,1.77
2023-01-19T22:56:25.485Z,1.74
2023-01-19T22:58:52.593Z,1.67
2023-01-19T23:01:22.213Z,1.65
2023-01-19T23:03:49.139Z,1.59
2023-01-19T23:06:18.563Z,1.55
2023-01-19T23:08:45.625Z,1.33
2023-01-19T23:11:22.663Z,1.45
2023-01-19T23:13:50.346Z,1.41
2023-01-19T23:16:20.382Z,1.22
2023-01-19T23:18:47.766Z,1.33
2023-01-19T23:21:19.089Z,1.27
2023-01-19T23:23:46.440Z,1.32
2023-01-19T23:26:15.683Z,1.15
2023-01-19T23:28:43.403Z,1.27
2023-01-19T23:31:24.678Z,1.21
2023-01-19T23:33:56.695Z,1.05
2023-01-19T23:36:25.262Z,1.21
2023-01-19T23:38:53.759Z,1.24
2023-01-19T23:41:21.206Z,1.27
2023-01-19T23:43:48.286Z,1.28
2023-01-19T23:46:15.984Z,1.32
2023-01-19T23:48:42.816Z,1.36
2023-01-19T23:51:12.705Z,1.38
2023-01-19T23:53:42.245Z,1.38
2023-01-19T23:56:30.709Z,1.35
2023-01-19T23:59:10.769Z,1.44
